Search for airport 
image banner adimage banner adimage banner ad
image banner ad

O24 - Lee Vining

Located in Lee Vining, United States

ICAO - O24, IATA -

Data provided by Airmate  

General information

Coordinates: N37°57'28" W119°6'21"
Elevation is 6802 feet MSL.
Magnetic variation is 15° East
View others Airports in California

Operational data

Special qualification required
Current time UTC:
Current local time:
Weather at : KMMH - Mammoth Yosemite ( 44 km )
METAR: KMMH 211101Z AUTO 00000KT 10SM CLR A3023 RMK AO2
TAF: KMMH 210529Z 2106/2206 23009KT P6SM SKC FM211700 12006KT P6SM SKC FM212100 24012G21KT P6SM FEW100 FEW250 FM212300 27019G27KT P6SM FEW120 FEW250 FM220300 25014KT P6SM SKC
View NOTAMs / SUP AIP / TFR affecting this airport [VIEW]
Communications frequencies: [VIEW]

Runways:

RWY identifierQFULength (ft)Width (ft)SurfaceLDA (ft)
15162°392060ASPH
33342°392060ASPH

Airport contact information

Address: Lee Vining United States

Satellite view of O24